Time;durP1;ratioP1;P1;durP2;ratioP2;P2;SDS_P1;SDS_P2;PMS_P1;PMS_P2;Temp;Humidity;BMP_temperature;BMP_pressure;BME280_temperature;BME280_humidity;BME280_pressure;Samples;Min_cycle;Max_cycle;Signal;HPM_P1;HPM_P2
2024/01/09 00:01:03;;;;;;;18.83;8.25;;;-8.70;99.90;;;;;;5038189;28;20041;-66
2024/01/09 00:03:30;;;;;;;18.42;8.18;;;-8.70;99.90;;;;;;5061070;28;20154;-65
2024/01/09 00:06:00;;;;;;;17.75;8.40;;;-8.70;99.90;;;;;;5053935;23;20057;-87
2024/01/09 00:08:47;;;;;;;17.40;7.53;;;-8.70;99.90;;;;;;5044907;28;20052;-86
2024/01/09 00:11:19;;;;;;;20.30;8.48;;;-8.60;99.90;;;;;;5048936;28;20041;-86
2024/01/09 00:13:47;;;;;;;18.90;7.85;;;-8.70;99.90;;;;;;5055008;28;20147;-87
2024/01/09 00:16:13;;;;;;;24.17;8.68;;;-8.70;99.90;;;;;;5049334;28;20049;-85
2024/01/09 00:18:39;;;;;;;19.40;8.40;;;-8.70;99.90;;;;;;5034702;28;20486;-86
2024/01/09 00:21:05;;;;;;;23.13;8.90;;;-8.70;99.90;;;;;;5028268;28;20049;-86
2024/01/09 00:23:30;;;;;;;18.73;7.97;;;-8.70;99.90;;;;;;5036273;28;20140;-85
2024/01/09 00:25:56;;;;;;;21.38;8.40;;;-8.70;99.90;;;;;;5035911;28;20033;-85
2024/01/09 00:28:22;;;;;;;19.95;8.65;;;-8.70;99.90;;;;;;5037694;28;20033;-86
2024/01/09 00:30:48;;;;;;;20.88;7.82;;;-8.70;99.90;;;;;;5047480;28;20052;-86
2024/01/09 00:33:15;;;;;;;16.50;7.55;;;-8.70;99.90;;;;;;5031563;28;20072;-86
2024/01/09 00:35:43;;;;;;;17.08;7.13;;;-8.70;99.90;;;;;;5042628;28;20885;-88
2024/01/09 00:38:10;;;;;;;16.60;7.03;;;-8.70;99.90;;;;;;5048576;28;20497;-86
2024/01/09 00:40:37;;;;;;;23.08;8.05;;;-8.70;99.90;;;;;;5036881;28;20037;-86
2024/01/09 00:43:03;;;;;;;18.55;7.72;;;-8.70;99.90;;;;;;5024817;28;20563;-85
2024/01/09 00:45:30;;;;;;;15.55;7.72;;;-8.70;99.90;;;;;;5038176;28;20057;-87
2024/01/09 00:47:56;;;;;;;36.67;8.07;;;-8.70;99.90;;;;;;5037546;28;20083;-87
2024/01/09 00:50:22;;;;;;;21.73;9.13;;;-8.70;99.90;;;;;;5033031;28;20488;-86
2024/01/09 00:52:48;;;;;;;18.38;8.57;;;-8.70;99.90;;;;;;5034639;28;20073;-87
2024/01/09 00:55:16;;;;;;;23.20;8.90;;;-8.70;99.90;;;;;;5046936;28;20120;-87
2024/01/09 00:57:42;;;;;;;17.60;7.85;;;-8.70;99.90;;;;;;5041564;28;20076;-89
2024/01/09 01:00:08;;;;;;;20.85;8.40;;;-8.80;99.90;;;;;;5036065;28;20030;-87
2024/01/09 01:02:34;;;;;;;22.02;9.10;;;-8.80;99.90;;;;;;5032742;28;20045;-89
2024/01/09 01:05:00;;;;;;;19.20;7.78;;;-8.80;99.90;;;;;;5039829;28;20041;-86
2024/01/09 01:07:25;;;;;;;20.48;7.97;;;-8.90;99.90;;;;;;5039450;28;20081;-87
2024/01/09 01:09:51;;;;;;;21.00;7.78;;;-8.90;99.90;;;;;;5030575;28;20041;-86
2024/01/09 01:12:17;;;;;;;16.13;7.38;;;-8.90;99.90;;;;;;5036223;28;20551;-86
2024/01/09 01:14:43;;;;;;;17.92;6.80;;;-8.90;99.90;;;;;;5039612;28;20044;-87
2024/01/09 01:17:09;;;;;;;15.15;7.38;;;-8.90;99.90;;;;;;5037307;28;20075;-87
2024/01/09 01:19:35;;;;;;;14.93;6.45;;;-8.80;99.90;;;;;;5031210;28;20090;-87
2024/01/09 01:22:01;;;;;;;18.17;7.93;;;-8.80;99.90;;;;;;5035967;28;20072;-86
2024/01/09 01:24:26;;;;;;;19.20;7.82;;;-8.90;99.90;;;;;;5037212;28;20061;-87
2024/01/09 01:26:52;;;;;;;15.27;7.72;;;-8.90;99.90;;;;;;5032117;28;20045;-87
2024/01/09 01:29:18;;;;;;;15.63;7.72;;;-8.90;99.90;;;;;;5037506;28;20513;-87
2024/01/09 01:31:45;;;;;;;14.90;7.45;;;-8.90;99.90;;;;;;5041250;28;20087;-87
2024/01/09 01:34:12;;;;;;;14.88;6.82;;;-8.90;99.90;;;;;;5030317;28;20033;-86
2024/01/09 01:36:38;;;;;;;16.25;6.93;;;-8.90;99.90;;;;;;5032080;28;20113;-86
2024/01/09 01:39:04;;;;;;;17.33;7.53;;;-8.80;99.90;;;;;;5041632;28;20116;-85
2024/01/09 01:41:30;;;;;;;16.23;7.30;;;-8.90;99.90;;;;;;5032600;28;20115;-86
2024/01/09 01:43:56;;;;;;;14.38;6.50;;;-8.90;99.90;;;;;;5027444;28;20485;-87
2024/01/09 01:46:23;;;;;;;18.83;8.55;;;-8.90;99.90;;;;;;5021459;28;20420;-86
2024/01/09 01:48:49;;;;;;;14.13;6.18;;;-8.80;99.90;;;;;;5044505;28;20033;-86
2024/01/09 01:51:15;;;;;;;17.65;7.22;;;-8.80;99.90;;;;;;5029669;28;20037;-86
2024/01/09 01:53:42;;;;;;;16.85;7.40;;;-8.80;99.90;;;;;;5029453;28;20587;-86
2024/01/09 01:56:09;;;;;;;16.75;7.10;;;-8.80;99.90;;;;;;5035231;28;20049;-84
2024/01/09 01:58:36;;;;;;;17.88;6.70;;;-8.80;99.90;;;;;;5035479;28;20045;-86
2024/01/09 02:01:02;;;;;;;19.13;7.85;;;-8.80;99.90;;;;;;5034113;28;20143;-87
2024/01/09 02:03:28;;;;;;;20.73;8.27;;;-8.90;99.90;;;;;;5036725;28;20393;-86
2024/01/09 02:05:56;;;;;;;18.67;8.23;;;-8.90;99.90;;;;;;5037054;28;20033;-87
2024/01/09 02:08:25;;;;;;;16.33;6.95;;;-9.00;99.90;;;;;;5038652;28;20141;-87
2024/01/09 02:10:51;;;;;;;14.35;6.68;;;-9.00;99.90;;;;;;5036918;28;20048;-85
2024/01/09 02:13:17;;;;;;;18.60;7.70;;;-9.00;99.90;;;;;;5040570;28;20037;-87
2024/01/09 02:15:46;;;;;;;17.33;7.38;;;-9.00;99.90;;;;;;5029946;28;20488;-87
2024/01/09 02:18:12;;;;;;;17.55;7.55;;;-9.10;99.90;;;;;;5040173;28;20055;-87
2024/01/09 02:20:38;;;;;;;17.88;7.28;;;-9.00;99.90;;;;;;5043150;28;20029;-86
2024/01/09 02:23:04;;;;;;;21.73;7.38;;;-9.10;99.90;;;;;;5042793;28;20068;-87
2024/01/09 02:25:30;;;;;;;17.63;7.25;;;-9.00;99.90;;;;;;5040924;28;20124;-86
2024/01/09 02:28:14;;;;;;;15.52;7.50;;;-9.10;99.90;;;;;;5029797;28;20045;-86
2024/01/09 02:30:41;;;;;;;18.83;7.28;;;-9.10;99.90;;;;;;5039230;28;20102;-87
2024/01/09 02:33:08;;;;;;;21.20;8.43;;;-9.20;99.90;;;;;;5035498;28;20048;-86
2024/01/09 02:35:33;;;;;;;16.98;7.88;;;-9.10;99.90;;;;;;5038510;28;20073;-86
2024/01/09 02:38:01;;;;;;;18.80;8.38;;;-9.20;99.90;;;;;;5033991;28;20118;-87
2024/01/09 02:40:27;;;;;;;20.08;7.32;;;-9.20;99.90;;;;;;5033006;28;20037;-87
2024/01/09 02:42:52;;;;;;;18.83;7.18;;;-9.10;99.90;;;;;;5039901;28;20052;-87
2024/01/09 02:45:18;;;;;;;19.88;7.57;;;-9.20;99.90;;;;;;5040741;28;20116;-87
2024/01/09 02:47:44;;;;;;;17.58;7.10;;;-9.20;99.90;;;;;;5041859;28;20073;-87
2024/01/09 02:50:10;;;;;;;17.98;6.85;;;-9.20;99.90;;;;;;5040106;28;20059;-87
2024/01/09 02:52:36;;;;;;;16.58;6.97;;;-9.10;99.90;;;;;;5044574;28;20048;-87
2024/01/09 02:55:02;;;;;;;16.70;7.15;;;-9.10;99.90;;;;;;5034558;28;20553;-87
2024/01/09 02:57:28;;;;;;;17.73;8.38;;;-9.00;99.90;;;;;;5045747;28;20042;-87
2024/01/09 02:59:54;;;;;;;15.68;6.93;;;-9.00;99.90;;;;;;5035457;28;20041;-86
2024/01/09 03:02:20;;;;;;;15.07;6.78;;;-9.10;99.90;;;;;;5033503;28;20040;-87
2024/01/09 03:04:46;;;;;;;15.35;6.40;;;-9.00;99.90;;;;;;5043384;28;20063;-85
2024/01/09 03:07:14;;;;;;;14.38;6.22;;;-9.10;99.90;;;;;;5035511;28;20470;-86
2024/01/09 03:09:43;;;;;;;12.38;5.55;;;-9.00;99.90;;;;;;5038504;28;20052;-87
2024/01/09 03:12:09;;;;;;;17.80;8.25;;;-9.00;99.90;;;;;;5035784;28;20550;-86
2024/01/09 03:14:38;;;;;;;12.73;6.20;;;-9.00;99.90;;;;;;5037684;28;20033;-86
2024/01/09 03:17:07;;;;;;;12.15;5.15;;;-8.90;99.90;;;;;;5037469;28;20113;-87
2024/01/09 03:19:33;;;;;;;14.60;5.88;;;-9.00;99.90;;;;;;5028103;28;20045;-87
2024/01/09 03:22:00;;;;;;;13.43;5.97;;;-9.00;99.90;;;;;;5034970;28;20523;-86
2024/01/09 03:24:26;;;;;;;14.57;6.15;;;-9.10;99.90;;;;;;5035286;28;20559;-86
2024/01/09 03:26:51;;;;;;;13.55;6.15;;;-9.00;99.90;;;;;;5037108;28;20037;-86
2024/01/09 03:29:20;;;;;;;13.68;6.05;;;-9.00;99.90;;;;;;5031239;28;20185;-86
2024/01/09 03:31:46;;;;;;;15.18;6.13;;;-9.00;99.90;;;;;;5037644;28;20041;-86
2024/01/09 03:34:12;;;;;;;14.95;6.45;;;-9.00;99.90;;;;;;5039373;28;20045;-86
2024/01/09 03:36:40;;;;;;;12.27;5.30;;;-9.00;99.90;;;;;;5037222;28;20088;-87
2024/01/09 03:39:08;;;;;;;13.48;5.53;;;-9.00;99.90;;;;;;5023235;28;20436;-87
2024/01/09 03:41:34;;;;;;;14.23;6.22;;;-9.00;99.90;;;;;;5032614;28;20124;-85
2024/01/09 03:44:00;;;;;;;13.20;5.53;;;-9.00;99.90;;;;;;5024813;28;20479;-87
2024/01/09 03:46:27;;;;;;;15.60;5.80;;;-9.00;99.90;;;;;;5020979;28;20049;-87
2024/01/09 03:48:54;;;;;;;11.43;4.57;;;-9.00;99.90;;;;;;5033581;28;20447;-86
2024/01/09 03:51:20;;;;;;;12.63;5.82;;;-8.90;99.90;;;;;;5038105;28;20593;-86
2024/01/09 03:53:45;;;;;;;14.40;5.45;;;-8.90;99.90;;;;;;5033324;28;20073;-86
2024/01/09 03:56:12;;;;;;;11.65;5.07;;;-8.90;99.90;;;;;;5037943;28;20033;-86
2024/01/09 03:58:38;;;;;;;13.73;5.63;;;-9.00;99.90;;;;;;5027751;28;20050;-87
2024/01/09 04:01:03;;;;;;;11.40;5.20;;;-8.90;99.90;;;;;;5027106;28;20034;-86
2024/01/09 04:03:29;;;;;;;11.52;5.65;;;-8.90;99.90;;;;;;5037613;28;20145;-87
2024/01/09 04:05:55;;;;;;;12.48;5.13;;;-8.90;99.90;;;;;;5024363;28;20041;-86
2024/01/09 04:08:21;;;;;;;11.68;5.28;;;-8.80;99.90;;;;;;5038203;28;20052;-86
2024/01/09 04:10:49;;;;;;;14.80;5.53;;;-8.70;99.90;;;;;;5049687;28;20036;-86
2024/01/09 04:13:19;;;;;;;11.30;4.63;;;-8.70;99.90;;;;;;5041290;28;20421;-86
2024/01/09 04:15:45;;;;;;;12.48;5.25;;;-8.80;99.90;;;;;;5034828;28;20048;-87
2024/01/09 04:18:12;;;;;;;11.80;5.15;;;-8.70;99.90;;;;;;5034404;28;20041;-86
2024/01/09 04:20:39;;;;;;;10.85;5.25;;;-8.70;99.90;;;;;;5034459;28;20405;-87
2024/01/09 04:23:06;;;;;;;12.07;4.80;;;-8.80;99.90;;;;;;5034014;28;20037;-87
2024/01/09 04:25:31;;;;;;;12.30;5.35;;;-8.80;99.90;;;;;;5039051;28;20068;-87
2024/01/09 04:27:57;;;;;;;14.93;5.25;;;-8.90;99.90;;;;;;5045399;28;20037;-86
2024/01/09 04:30:23;;;;;;;14.88;5.95;;;-8.90;99.90;;;;;;5039039;28;20041;-86
2024/01/09 04:32:49;;;;;;;15.70;5.55;;;-8.90;99.90;;;;;;5041850;28;20116;-87
2024/01/09 04:35:15;;;;;;;11.43;5.00;;;-8.90;99.90;;;;;;5028023;28;20080;-86
2024/01/09 04:37:41;;;;;;;10.95;5.25;;;-9.00;99.90;;;;;;5029018;28;20038;-87
2024/01/09 04:40:07;;;;;;;13.20;5.57;;;-9.00;99.90;;;;;;5025538;28;20029;-87
2024/01/09 04:42:33;;;;;;;11.27;5.18;;;-9.00;99.90;;;;;;5036397;28;20052;-87
2024/01/09 04:44:59;;;;;;;11.82;5.32;;;-9.00;99.90;;;;;;5032994;28;20038;-86
2024/01/09 04:47:25;;;;;;;12.07;5.30;;;-8.90;99.90;;;;;;5032948;28;20037;-86
2024/01/09 04:49:51;;;;;;;15.50;6.63;;;-8.90;99.90;;;;;;5027495;28;20038;-86
2024/01/09 04:52:17;;;;;;;13.57;5.88;;;-8.90;99.90;;;;;;5042291;28;20044;-87
2024/01/09 04:54:43;;;;;;;15.38;6.57;;;-8.90;99.90;;;;;;5033389;28;20048;-87
2024/01/09 04:57:09;;;;;;;14.30;5.60;;;-8.90;99.90;;;;;;5044310;28;20087;-86
2024/01/09 04:59:35;;;;;;;14.05;5.68;;;-8.90;99.90;;;;;;5032314;28;20124;-86
2024/01/09 05:02:02;;;;;;;14.13;6.05;;;-8.90;99.90;;;;;;5033307;28;20051;-86
2024/01/09 05:04:29;;;;;;;15.40;6.35;;;-8.90;99.90;;;;;;5034899;28;20040;-87
2024/01/09 05:06:55;;;;;;;12.32;5.18;;;-9.00;99.90;;;;;;5031102;28;20065;-86
2024/01/09 05:09:21;;;;;;;14.25;5.75;;;-9.00;99.90;;;;;;5029549;28;20087;-85
2024/01/09 05:11:47;;;;;;;11.10;5.28;;;-9.10;99.90;;;;;;5035386;28;20050;-85
2024/01/09 05:14:16;;;;;;;14.05;5.65;;;-9.10;99.90;;;;;;5032550;28;20516;-86
2024/01/09 05:16:42;;;;;;;14.95;6.43;;;-9.10;99.90;;;;;;5039074;28;20119;-86
2024/01/09 05:19:08;;;;;;;11.68;5.18;;;-9.10;99.90;;;;;;5038859;28;20041;-87
2024/01/09 05:21:35;;;;;;;16.98;6.25;;;-9.20;99.90;;;;;;5033396;28;20037;-86
2024/01/09 05:24:01;;;;;;;15.00;5.38;;;-9.10;99.90;;;;;;5024348;28;20044;-87
2024/01/09 05:26:27;;;;;;;12.95;5.18;;;-9.20;99.90;;;;;;5047649;28;20037;-86
2024/01/09 05:28:52;;;;;;;15.93;6.20;;;-9.20;99.90;;;;;;5028344;28;20453;-86
2024/01/09 05:31:18;;;;;;;12.77;5.50;;;-9.30;99.90;;;;;;5038430;28;20041;-86
2024/01/09 05:33:45;;;;;;;11.15;5.20;;;-9.40;99.90;;;;;;5038911;28;20040;-87
2024/01/09 05:36:18;;;;;;;11.43;5.07;;;-9.40;99.90;;;;;;5045733;28;20033;-87
2024/01/09 05:38:45;;;;;;;14.63;6.00;;;-9.40;99.90;;;;;;5023516;28;20497;-86
2024/01/09 05:41:19;;;;;;;14.60;5.60;;;-9.50;99.90;;;;;;5038125;28;20096;-89
2024/01/09 05:43:45;;;;;;;14.82;6.38;;;-9.50;99.90;;;;;;5043184;28;20044;-88
2024/01/09 05:46:10;;;;;;;9.93;5.18;;;-9.60;99.90;;;;;;5040917;28;20401;-88
2024/01/09 05:48:36;;;;;;;11.40;5.10;;;-9.70;99.90;;;;;;5038886;28;20426;-88
2024/01/09 05:51:03;;;;;;;14.45;5.65;;;-9.70;99.90;;;;;;5039239;28;20041;-89
2024/01/09 05:53:30;;;;;;;10.20;5.25;;;-9.70;99.90;;;;;;5043509;28;20037;-88
2024/01/09 05:55:56;;;;;;;11.90;4.88;;;-9.70;99.90;;;;;;5032796;28;20111;-88
2024/01/09 05:58:22;;;;;;;12.77;4.82;;;-9.70;99.90;;;;;;5032022;28;20128;-89
2024/01/09 06:00:48;;;;;;;15.20;6.43;;;-9.60;99.90;;;;;;5028046;28;20034;-89
2024/01/09 06:03:14;;;;;;;13.40;5.35;;;-9.50;99.90;;;;;;5032617;28;20032;-89
2024/01/09 06:05:43;;;;;;;13.50;6.35;;;-9.40;99.90;;;;;;5042729;28;20059;-90
2024/01/09 06:08:09;;;;;;;12.10;5.32;;;-9.50;99.90;;;;;;5037809;28;20072;-90
2024/01/09 06:10:34;;;;;;;16.17;5.50;;;-9.40;99.90;;;;;;5043665;28;20068;-89
2024/01/09 06:13:00;;;;;;;15.05;6.07;;;-9.30;99.90;;;;;;5033216;28;20091;-90
2024/01/09 06:15:26;;;;;;;14.80;6.15;;;-9.20;99.90;;;;;;5038636;28;20037;-90
2024/01/09 06:17:54;;;;;;;10.20;4.78;;;-9.20;99.90;;;;;;5029435;28;20104;-90
2024/01/09 06:20:20;;;;;;;9.65;5.07;;;-9.20;99.90;;;;;;5039467;28;20037;-90
2024/01/09 06:22:45;;;;;;;14.25;5.63;;;-9.10;99.90;;;;;;5032562;28;20079;-89
2024/01/09 06:25:13;;;;;;;12.27;5.13;;;-9.10;99.90;;;;;;5023138;28;20057;-89
2024/01/09 06:27:39;;;;;;;11.35;5.30;;;-9.20;99.90;;;;;;5027483;28;20175;-88
2024/01/09 06:30:06;;;;;;;14.10;5.28;;;-9.20;99.90;;;;;;5037916;28;20136;-89
2024/01/09 06:32:32;;;;;;;15.10;5.90;;;-9.20;99.90;;;;;;5026689;28;20052;-89
2024/01/09 06:34:58;;;;;;;13.48;5.90;;;-9.20;99.90;;;;;;5033521;28;20049;-89
2024/01/09 06:37:24;;;;;;;10.80;5.30;;;-9.30;99.90;;;;;;5042042;28;20124;-88
2024/01/09 06:39:50;;;;;;;14.40;5.65;;;-9.40;99.90;;;;;;5029676;28;20590;-90
2024/01/09 06:42:18;;;;;;;10.07;4.90;;;-9.40;99.90;;;;;;5031609;28;20044;-88
2024/01/09 06:44:43;;;;;;;12.15;4.88;;;-9.40;99.90;;;;;;5029638;28;20038;-89
2024/01/09 06:47:09;;;;;;;14.80;6.45;;;-9.40;99.90;;;;;;5028027;28;20098;-89
2024/01/09 06:49:35;;;;;;;14.60;6.40;;;-9.20;99.90;;;;;;5031023;28;20496;-89
2024/01/09 06:52:01;;;;;;;13.07;5.80;;;-9.30;99.90;;;;;;5039381;28;20064;-89
2024/01/09 06:54:27;;;;;;;14.45;6.00;;;-9.30;99.90;;;;;;5033560;28;20045;-89
2024/01/09 06:56:53;;;;;;;13.15;5.70;;;-9.20;99.90;;;;;;5043005;28;20047;-89
2024/01/09 06:59:19;;;;;;;22.20;8.20;;;-9.40;99.90;;;;;;5032021;28;20432;-89
2024/01/09 07:01:46;;;;;;;12.57;6.40;;;-9.40;99.90;;;;;;5046641;28;20045;-89
2024/01/09 07:04:12;;;;;;;13.07;6.20;;;-9.40;99.90;;;;;;5024857;28;20097;-88
2024/01/09 07:06:38;;;;;;;13.90;6.25;;;-9.40;99.90;;;;;;5023383;28;20057;-89
2024/01/09 07:09:07;;;;;;;11.77;5.47;;;-9.40;99.90;;;;;;5034304;28;20029;-89
2024/01/09 07:11:34;;;;;;;78.38;27.15;;;-9.40;99.90;;;;;;5020138;28;20041;-89
2024/01/09 07:14:00;;;;;;;71.60;27.70;;;-9.40;99.90;;;;;;5032448;28;20069;-89
2024/01/09 07:16:26;;;;;;;25.95;11.43;;;-9.30;99.90;;;;;;5032232;28;20038;-88
2024/01/09 07:18:53;;;;;;;20.90;7.72;;;-9.20;99.90;;;;;;5023970;28;20042;-88
2024/01/09 07:21:19;;;;;;;14.05;6.38;;;-9.10;99.90;;;;;;5046288;28;20493;-88
2024/01/09 07:23:47;;;;;;;12.90;5.47;;;-9.10;99.90;;;;;;5022895;28;20040;-89
2024/01/09 07:26:15;;;;;;;14.25;5.88;;;-9.00;99.90;;;;;;5035102;28;20042;-89
2024/01/09 07:28:41;;;;;;;9.10;4.82;;;-8.90;99.90;;;;;;5033639;28;20037;-89
2024/01/09 07:31:09;;;;;;;15.60;6.45;;;-9.00;99.90;;;;;;5031152;28;20042;-89
2024/01/09 07:33:35;;;;;;;12.60;6.00;;;-9.00;99.90;;;;;;5043010;28;20067;-88
2024/01/09 07:36:02;;;;;;;11.98;4.97;;;-9.10;99.90;;;;;;5036586;28;20067;-88
2024/01/09 07:38:28;;;;;;;16.85;6.78;;;-9.20;99.90;;;;;;5036841;28;20120;-89
2024/01/09 07:40:54;;;;;;;18.70;6.88;;;-9.00;99.90;;;;;;5035635;28;20042;-88
2024/01/09 07:43:22;;;;;;;32.47;10.43;;;-9.10;99.90;;;;;;5035663;28;20040;-88
2024/01/09 07:45:47;;;;;;;30.77;10.23;;;-9.00;99.90;;;;;;5050519;28;20575;-89
2024/01/09 07:48:16;;;;;;;23.50;7.93;;;-8.90;99.90;;;;;;5032727;28;20037;-88
2024/01/09 07:50:43;;;;;;;19.75;8.18;;;-8.80;99.90;;;;;;5042280;28;20875;-88
2024/01/09 07:53:09;;;;;;;17.77;7.13;;;-8.70;99.90;;;;;;5029913;28;20038;-88
2024/01/09 07:55:36;;;;;;;22.75;8.18;;;-8.70;99.90;;;;;;5035534;28;20544;-89
2024/01/09 07:58:04;;;;;;;17.20;7.25;;;-8.60;99.90;;;;;;5030469;28;20112;-89
2024/01/09 08:00:32;;;;;;;20.58;7.55;;;-8.60;99.90;;;;;;5030888;28;20490;-88
2024/01/09 08:03:00;;;;;;;14.32;6.50;;;-8.60;99.90;;;;;;5039343;28;20041;-89
2024/01/09 08:05:26;;;;;;;13.05;5.53;;;-8.60;99.90;;;;;;5041591;28;20442;-89
2024/01/09 08:07:52;;;;;;;23.13;7.57;;;-8.50;99.90;;;;;;5041114;28;20041;-88
2024/01/09 08:10:19;;;;;;;39.53;10.55;;;-8.50;99.90;;;;;;5038070;28;20045;-88
2024/01/09 08:12:45;;;;;;;35.67;10.60;;;-8.50;99.90;;;;;;5034960;28;20132;-88
2024/01/09 08:15:11;;;;;;;39.88;13.05;;;-8.40;99.90;;;;;;5039917;28;20037;-87
2024/01/09 08:17:36;;;;;;;17.92;6.43;;;-8.40;99.90;;;;;;5043837;28;20116;-88
2024/01/09 08:20:04;;;;;;;57.72;20.90;;;-8.50;99.90;;;;;;5042940;28;20041;-88
2024/01/09 08:22:30;;;;;;;19.45;8.75;;;-8.50;99.90;;;;;;5033265;28;20091;-88
2024/01/09 08:24:56;;;;;;;24.35;9.23;;;-8.50;99.90;;;;;;5037561;28;20042;-88
2024/01/09 08:27:22;;;;;;;27.95;11.05;;;-8.40;99.90;;;;;;5044875;28;20045;-89
2024/01/09 08:29:48;;;;;;;31.38;12.13;;;-8.40;99.90;;;;;;5046632;28;20041;-89
2024/01/09 08:32:16;;;;;;;11.20;4.95;;;-8.30;99.90;;;;;;5038731;28;20116;-88
2024/01/09 08:34:42;;;;;;;14.02;6.25;;;-8.20;99.90;;;;;;5036862;28;20076;-89
2024/01/09 08:37:10;;;;;;;11.73;5.25;;;-8.20;99.90;;;;;;5023008;28;20077;-89
2024/01/09 08:39:36;;;;;;;12.15;5.07;;;-8.10;99.90;;;;;;5030122;28;20049;-89
2024/01/09 08:42:02;;;;;;;12.45;5.25;;;-8.00;99.90;;;;;;5034944;28;20041;-89
2024/01/09 08:44:29;;;;;;;24.50;9.50;;;-7.80;99.90;;;;;;5030426;28;20048;-88
2024/01/09 08:46:57;;;;;;;11.38;5.35;;;-7.70;99.90;;;;;;5028483;28;20068;-88
2024/01/09 08:49:23;;;;;;;16.38;5.88;;;-7.60;99.90;;;;;;5037259;28;20098;-88
2024/01/09 08:51:49;;;;;;;14.15;4.85;;;-7.50;99.90;;;;;;5035909;28;20120;-88
2024/01/09 08:54:16;;;;;;;22.30;7.72;;;-7.40;99.90;;;;;;5034346;28;20455;-88
2024/01/09 08:56:42;;;;;;;12.43;5.80;;;-7.30;99.90;;;;;;5029215;28;20591;-88
2024/01/09 08:59:09;;;;;;;9.40;4.50;;;-7.20;99.90;;;;;;5029775;28;20555;-88
2024/01/09 09:01:35;;;;;;;18.08;7.22;;;-7.10;99.90;;;;;;5038076;28;20435;-88
2024/01/09 09:04:02;;;;;;;14.05;6.00;;;-7.10;99.90;;;;;;5041025;28;20146;-88
2024/01/09 09:06:28;;;;;;;13.45;6.13;;;-7.00;99.90;;;;;;5037790;28;20057;-88
2024/01/09 09:08:54;;;;;;;12.90;5.00;;;-6.90;99.90;;;;;;5030108;28;20402;-89
2024/01/09 09:11:20;;;;;;;11.57;5.07;;;-6.90;99.90;;;;;;5032164;28;20029;-87
2024/01/09 09:13:46;;;;;;;8.38;3.90;;;-6.80;99.90;;;;;;5019934;28;20128;-88
2024/01/09 09:16:14;;;;;;;13.65;4.68;;;-6.70;99.90;;;;;;5035719;28;20041;-88
2024/01/09 09:18:40;;;;;;;10.38;4.28;;;-6.50;99.90;;;;;;5026708;28;20452;-87
2024/01/09 09:21:06;;;;;;;8.25;3.70;;;-6.50;99.90;;;;;;5037284;28;20052;-88
2024/01/09 09:23:33;;;;;;;8.10;3.40;;;-6.30;99.70;;;;;;5034153;28;20040;-87
2024/01/09 09:26:03;;;;;;;5.32;2.97;;;-6.20;98.40;;;;;;5031302;28;20049;-88
2024/01/09 09:28:30;;;;;;;8.80;3.63;;;-6.10;99.90;;;;;;5034157;28;20099;-88
2024/01/09 09:30:59;;;;;;;5.82;2.67;;;-6.00;99.90;;;;;;5051108;28;20085;-87
2024/01/09 09:33:28;;;;;;;7.43;3.15;;;-5.90;98.60;;;;;;5030186;28;20037;-86
2024/01/09 09:35:55;;;;;;;4.40;2.88;;;-5.80;99.20;;;;;;5037248;28;20404;-88
2024/01/09 09:38:22;;;;;;;7.93;4.13;;;-5.70;98.70;;;;;;5027536;28;20608;-87
2024/01/09 09:40:51;;;;;;;5.68;3.03;;;-5.60;97.60;;;;;;5044194;28;20029;-87
2024/01/09 09:43:24;;;;;;;7.38;3.38;;;-5.60;97.30;;;;;;5044535;28;20044;-87
2024/01/09 09:45:54;;;;;;;8.68;3.75;;;-5.60;96.80;;;;;;5029754;28;20046;-86
2024/01/09 09:48:23;;;;;;;6.88;3.53;;;-5.50;97.00;;;;;;5038340;28;20124;-87
2024/01/09 09:50:54;;;;;;;9.07;4.45;;;-5.40;96.40;;;;;;5043453;28;20036;-87
2024/01/09 09:53:28;;;;;;;5.70;2.85;;;-5.30;98.40;;;;;;5034257;28;20470;-87
2024/01/09 09:55:55;;;;;;;5.63;2.55;;;-5.20;97.00;;;;;;5037023;28;20437;-88
2024/01/09 09:58:22;;;;;;;5.93;3.10;;;-5.30;95.00;;;;;;5043351;28;20083;-86
2024/01/09 10:00:51;;;;;;;8.05;3.10;;;-5.20;95.90;;;;;;5057735;28;20569;-88
2024/01/09 10:03:20;;;;;;;7.50;2.97;;;-5.10;94.90;;;;;;5050769;28;20037;-87
2024/01/09 10:05:47;;;;;;;8.30;3.30;;;-5.00;95.60;;;;;;5050467;28;20785;-88
2024/01/09 10:08:20;;;;;;;9.90;3.30;;;-5.00;94.40;;;;;;5043262;28;20076;-88
2024/01/09 10:10:50;;;;;;;8.27;3.60;;;-4.80;96.80;;;;;;5042731;28;20448;-88
2024/01/09 10:13:17;;;;;;;7.93;3.80;;;-4.80;96.80;;;;;;5038645;28;20030;-88
2024/01/09 10:15:57;;;;;;;7.40;3.50;;;-4.80;96.40;;;;;;5039221;28;20037;-87
2024/01/09 10:18:29;;;;;;;7.30;3.60;;;-4.80;96.40;;;;;;5041421;28;20056;-87
2024/01/09 10:21:02;;;;;;;7.57;4.03;;;-4.80;97.10;;;;;;5037871;28;20029;-86
2024/01/09 10:23:31;;;;;;;8.70;4.25;;;-4.80;98.40;;;;;;5036524;28;20037;-88
2024/01/09 10:26:00;;;;;;;20.70;4.75;;;-4.80;98.80;;;;;;5037980;28;20056;-86
2024/01/09 10:28:28;;;;;;;9.45;4.13;;;-4.80;99.00;;;;;;5049918;28;20064;-88
2024/01/09 10:31:10;;;;;;;9.18;3.97;;;-4.70;99.40;;;;;;5038405;28;20401;-87
2024/01/09 10:33:42;;;;;;;7.72;3.33;;;-4.90;98.30;;;;;;5037391;28;20037;-88
2024/01/09 10:36:09;;;;;;;7.55;3.60;;;-4.80;98.40;;;;;;5023886;28;20494;-88
2024/01/09 10:38:35;;;;;;;9.02;4.53;;;-4.70;98.80;;;;;;5038107;28;20496;-89
2024/01/09 10:41:13;;;;;;;7.43;3.97;;;-4.60;98.40;;;;;;5048745;28;20051;-90
2024/01/09 10:43:39;;;;;;;9.77;3.92;;;-4.40;97.60;;;;;;5031873;28;20044;-89
2024/01/09 10:46:05;;;;;;;7.43;3.15;;;-4.30;98.10;;;;;;5035648;22;20033;-66
2024/01/09 10:48:32;;;;;;;5.90;3.05;;;-4.20;97.50;;;;;;5038461;28;21277;-67
2024/01/09 10:50:58;;;;;;;8.50;2.88;;;-4.20;98.20;;;;;;5040176;28;20128;-65
2024/01/09 10:53:26;;;;;;;12.85;5.40;;;-4.10;94.30;;;;;;5043200;28;20119;-65
2024/01/09 10:55:55;;;;;;;14.90;6.18;;;-4.00;95.90;;;;;;5038087;28;20045;-65
2024/01/09 10:58:21;;;;;;;14.27;5.60;;;-4.00;93.90;;;;;;5042865;28;20028;-66
2024/01/09 11:00:47;;;;;;;10.35;4.90;;;-3.90;95.90;;;;;;5037940;28;20089;-66
2024/01/09 11:03:14;;;;;;;8.27;3.90;;;-3.80;95.80;;;;;;5041716;28;20068;-65
2024/01/09 11:05:41;;;;;;;7.18;3.50;;;-3.90;95.20;;;;;;5046692;28;20091;-66
2024/01/09 11:08:12;;;;;;;8.20;3.40;;;-3.80;96.30;;;;;;5046078;28;20412;-65
2024/01/09 11:10:39;;;;;;;8.13;3.90;;;-3.80;97.00;;;;;;5042444;28;20033;-66
2024/01/09 11:13:06;;;;;;;11.00;4.82;;;-3.90;96.90;;;;;;5042917;28;20408;-65
2024/01/09 11:15:38;;;;;;;9.57;4.55;;;-3.90;96.90;;;;;;5044612;28;20037;-65
2024/01/09 11:18:06;;;;;;;11.23;4.85;;;-4.00;97.30;;;;;;5045704;28;20408;-65
2024/01/09 11:20:32;;;;;;;9.20;4.15;;;-4.10;97.60;;;;;;5027099;28;20041;-65
2024/01/09 11:22:58;;;;;;;9.05;4.40;;;-4.10;96.20;;;;;;5042625;28;20045;-65
2024/01/09 11:25:24;;;;;;;9.75;4.25;;;-4.00;96.30;;;;;;5043522;28;20062;-66
2024/01/09 11:27:53;;;;;;;10.98;4.78;;;-3.80;97.00;;;;;;5027702;28;20045;-65
2024/01/09 11:30:26;;;;;;;8.02;4.03;;;-3.70;97.60;;;;;;5023717;28;20655;-65
2024/01/09 11:32:53;;;;;;;8.68;4.10;;;-3.60;96.80;;;;;;5045481;28;20036;-65
2024/01/09 11:35:20;;;;;;;8.13;3.58;;;-3.70;97.00;;;;;;5044978;28;20033;-66
2024/01/09 11:37:49;;;;;;;9.60;3.75;;;-3.80;96.80;;;;;;5039439;28;20501;-65
2024/01/09 11:40:16;;;;;;;11.52;5.05;;;-3.80;95.50;;;;;;5046231;28;20066;-65
2024/01/09 12:01:23;;;;;;;7.93;3.67;;;-3.70;93.70;;;;;;5053618;28;20487;-65
2024/01/09 12:04:09;;;;;;;6.68;3.42;;;-3.40;93.90;;;;;;5051495;28;20455;-66
2024/01/09 12:06:55;;;;;;;;;;;-3.50;92.30;;;;;;5052510;28;20052;-67
2024/01/09 12:09:41;;;;;;;6.95;2.90;;;-3.40;92.30;;;;;;5036939;28;20637;-66
2024/01/09 12:12:18;;;;;;;6.22;3.25;;;-3.40;92.40;;;;;;5039442;28;20087;-66
2024/01/09 12:14:51;;;;;;;6.35;3.50;;;-3.30;92.80;;;;;;5038985;28;20160;-67
2024/01/09 12:17:24;;;;;;;8.60;3.58;;;-3.40;91.60;;;;;;5038840;28;21143;-66
2024/01/09 12:19:51;;;;;;;6.28;3.22;;;-3.50;91.20;;;;;;5042046;28;20056;-67
2024/01/09 12:22:18;;;;;;;6.53;3.28;;;-3.50;91.10;;;;;;5042752;28;20048;-66
2024/01/09 12:24:44;;;;;;;6.75;3.70;;;-3.50;91.70;;;;;;5042157;28;20115;-67
2024/01/09 12:27:10;;;;;;;7.28;3.42;;;-3.60;91.40;;;;;;5038362;28;20087;-66
2024/01/09 12:29:35;;;;;;;9.07;4.03;;;-3.60;92.00;;;;;;5041153;28;20412;-66
2024/01/09 12:32:01;;;;;;;7.70;3.90;;;-3.60;92.20;;;;;;5042061;28;20041;-63
2024/01/09 12:34:27;;;;;;;10.88;3.85;;;-3.60;92.00;;;;;;5043246;28;20091;-66
2024/01/09 12:36:53;;;;;;;11.25;3.85;;;-3.60;91.50;;;;;;5037952;23;20046;-65
2024/01/09 12:39:19;;;;;;;15.32;5.75;;;-3.50;92.00;;;;;;5011867;28;20103;-65
2024/01/09 12:41:45;;;;;;;8.00;3.72;;;-3.50;92.60;;;;;;5009776;28;20049;-65
2024/01/09 12:44:14;;;;;;;10.07;4.70;;;-3.50;94.10;;;;;;4997124;28;20049;-67
2024/01/09 12:46:47;;;;;;;8.70;4.28;;;-3.40;95.10;;;;;;5006077;28;20041;-66
2024/01/09 12:49:13;;;;;;;6.80;3.75;;;-3.40;94.90;;;;;;5000896;28;20068;-67
2024/01/09 12:51:38;;;;;;;8.52;4.10;;;-3.40;94.60;;;;;;4999603;28;20046;-66
2024/01/09 12:54:04;;;;;;;7.30;3.65;;;-3.30;95.10;;;;;;4999914;28;20066;-67
2024/01/09 12:56:30;;;;;;;5.75;3.40;;;-3.40;93.40;;;;;;5003610;28;20026;-67